PWSweather.com
Personal Weather Stations
Station Observations
DW6359
Southwest Cambria, Cambria, WI 53923

Southwest CambriaCambria, WI 53923

Lat: 43.541194, Lon: -89.11275

Elevation: 945

Station Type: Davis Vantage Pro2

http://home.centurytel.net/weathercambria/wxcambria.html

High Low Average
Temperature 30.1°F-1.1°C 24.6°F-4.1°C 26.6°F-3.0°C
Dew Point 27.3°F-2.6°C 20.3°F-6.5°C 22.7°F-5.2°C
Winds 16.0 mph 25.7 kmh Calm Calm 7.0 mph NW11.3 kmh NW
Wind Gusts 21.0 mph33.8 kmh -- 2.0 mph3.2 kmh
Humidity 89% 82% 85%
Pressure 30.26 in1024.7 mb 29.61 in1002.7 mb -
Precipitation 0.00 in0.0 mm - -
Hour Temp Dew Point Humidity Winds Wind Gusts Pressure Precip Precip Rate Daily Precip Total
12:00 AM 30.6°F-0.8°C 27.8°F-2.3°C 89% 9.0 mph N14.5 kmh N 10.0 mph16.1 kmh 29.61 in1002.7 mb 0.00 in0.0 mm 0.00 in0.0 mm 0.60 in15.2 mm
12:05 AM 30.5°F-0.8°C 27.7°F-2.4°C 89% 8.0 mph NNW12.9 kmh NNW 10.0 mph16.1 kmh 29.61 in1002.7 mb 0.00 in0.0 mm 0.00 in0.0 mm 0.60 in15.2 mm
12:10 AM 30.5°F-0.8°C 27.7°F-2.4°C 89% 2.0 mph NNW3.2 kmh NNW -- 29.61 in1002.7 mb 0.00 in0.0 mm 0.00 in0.0 mm 0.60 in15.2 mm
12:15 AM 30.5°F-0.8°C 27.7°F-2.4°C 89% 5.0 mph NNW8.0 kmh NNW -- 29.61 in1002.7 mb 0.00 in0.0 mm 0.00 in0.0 mm 0.60 in15.2 mm
12:20 AM 30.3°F-0.9°C 27.5°F-2.5°C 89% 6.0 mph N9.7 kmh N -- 29.62 in1003.0 mb 0.00 in0.0 mm 0.00 in0.0 mm 0.60 in15.2 mm
12:25 AM 30.3°F-0.9°C 27.5°F-2.5°C 89% 4.0 mph NW6.4 kmh NW -- 29.62 in1003.0 mb 0.00 in0.0 mm 0.00 in0.0 mm 0.60 in15.2 mm
12:30 AM 30.3°F-0.9°C 27.5°F-2.5°C 89% 6.0 mph N9.7 kmh N -- 29.61 in1002.7 mb 0.00 in0.0 mm 0.00 in0.0 mm 0.60 in15.2 mm
12:35 AM 30.3°F-0.9°C 27.5°F-2.5°C 89% 7.0 mph N11.3 kmh N -- 29.61 in1002.7 mb 0.00 in0.0 mm 0.00 in0.0 mm 0.60 in15.2 mm
12:40 AM 30.3°F-0.9°C 27.5°F-2.5°C 89% 10.0 mph NW16.1 kmh NW -- 29.61 in1002.7 mb 0.00 in0.0 mm 0.00 in0.0 mm 0.60 in15.2 mm
12:45 AM 30.3°F-0.9°C 27.5°F-2.5°C 89% 8.0 mph NW12.9 kmh NW -- 29.61 in1002.7 mb 0.00 in0.0 mm 0.00 in0.0 mm 0.60 in15.2 mm
12:50 AM 30.2°F-1.0°C 27.4°F-2.6°C 89% 7.0 mph NW11.3 kmh NW 11.0 mph17.7 kmh 29.61 in1002.7 mb 0.00 in0.0 mm 0.00 in0.0 mm 0.60 in15.2 mm
12:55 AM 30.2°F-1.0°C 27.4°F-2.6°C 89% 7.0 mph NNW11.3 kmh NNW 11.0 mph17.7 kmh 29.61 in1002.7 mb 0.00 in0.0 mm 0.00 in0.0 mm 0.60 in15.2 mm
01:00 AM 30.1°F-1.1°C 27.3°F-2.6°C 89% 7.0 mph N11.3 kmh N -- 29.61 in1002.7 mb 0.00 in0.0 mm 0.00 in0.0 mm 0.00 in0.0 mm
01:05 AM 30.0°F-1.1°C 27.2°F-2.7°C 89% 8.0 mph N12.9 kmh N -- 29.61 in1002.7 mb 0.00 in0.0 mm 0.00 in0.0 mm 0.00 in0.0 mm
01:10 AM 29.9°F-1.2°C 27.1°F-2.7°C 89% 7.0 mph NW11.3 kmh NW -- 29.61 in1002.7 mb 0.00 in0.0 mm 0.00 in0.0 mm 0.00 in0.0 mm
01:15 AM 29.9°F-1.2°C 27.1°F-2.7°C 89% 5.0 mph N8.0 kmh N -- 29.61 in1002.7 mb 0.00 in0.0 mm 0.00 in0.0 mm 0.00 in0.0 mm
01:20 AM 29.9°F-1.2°C 27.1°F-2.7°C 89% 9.0 mph N14.5 kmh N -- 29.61 in1002.7 mb 0.00 in0.0 mm 0.00 in0.0 mm 0.00 in0.0 mm
01:25 AM 29.8°F-1.2°C 27.0°F-2.8°C 89% 4.0 mph NW6.4 kmh NW -- 29.61 in1002.7 mb 0.00 in0.0 mm 0.00 in0.0 mm 0.00 in0.0 mm
01:30 AM 29.8°F-1.2°C 27.0°F-2.8°C 89% 6.0 mph NNW9.7 kmh NNW -- 29.61 in1002.7 mb 0.00 in0.0 mm 0.00 in0.0 mm 0.00 in0.0 mm
01:35 AM 29.7°F-1.3°C 26.9°F-2.8°C 89% 4.0 mph NNW6.4 kmh NNW -- 29.61 in1002.7 mb 0.00 in0.0 mm 0.00 in0.0 mm 0.00 in0.0 mm
01:40 AM 29.7°F-1.3°C 26.9°F-2.8°C 89% 13.0 mph N20.9 kmh N 18.0 mph29.0 kmh 29.61 in1002.7 mb 0.00 in0.0 mm 0.00 in0.0 mm 0.00 in0.0 mm
01:45 AM 29.7°F-1.3°C 26.9°F-2.8°C 89% 10.0 mph NW16.1 kmh NW 18.0 mph29.0 kmh 29.61 in1002.7 mb 0.00 in0.0 mm 0.00 in0.0 mm 0.00 in0.0 mm
01:50 AM 29.7°F-1.3°C 26.9°F-2.8°C 89% 8.0 mph NNW12.9 kmh NNW -- 29.61 in1002.7 mb 0.00 in0.0 mm 0.00 in0.0 mm 0.00 in0.0 mm
01:55 AM 29.7°F-1.3°C 26.9°F-2.8°C 89% 11.0 mph N17.7 kmh N -- 29.61 in1002.7 mb 0.00 in0.0 mm 0.00 in0.0 mm 0.00 in0.0 mm
02:00 AM 29.7°F-1.3°C 26.9°F-2.8°C 89% 6.0 mph NNW9.7 kmh NNW -- 29.61 in1002.7 mb 0.00 in0.0 mm 0.00 in0.0 mm 0.00 in0.0 mm
02:05 AM 29.7°F-1.3°C 26.9°F-2.8°C 89% 13.0 mph N20.9 kmh N -- 29.62 in1003.0 mb 0.00 in0.0 mm 0.00 in0.0 mm 0.00 in0.0 mm
02:10 AM 29.7°F-1.3°C 26.9°F-2.8°C 89% 5.0 mph NW8.0 kmh NW -- 29.62 in1003.0 mb 0.00 in0.0 mm 0.00 in0.0 mm 0.00 in0.0 mm
02:15 AM 29.7°F-1.3°C 26.9°F-2.8°C 89% 7.0 mph NNW11.3 kmh NNW -- 29.62 in1003.0 mb 0.00 in0.0 mm 0.00 in0.0 mm 0.00 in0.0 mm
02:20 AM 29.7°F-1.3°C 26.9°F-2.8°C 89% 7.0 mph NW11.3 kmh NW -- 29.62 in1003.0 mb 0.00 in0.0 mm 0.00 in0.0 mm 0.00 in0.0 mm
02:25 AM 29.7°F-1.3°C 26.9°F-2.8°C 89% 5.0 mph NW8.0 kmh NW -- 29.62 in1003.0 mb 0.00 in0.0 mm 0.00 in0.0 mm 0.00 in0.0 mm
02:30 AM 29.7°F-1.3°C 26.9°F-2.8°C 89% 4.0 mph N6.4 kmh N 11.0 mph17.7 kmh 29.62 in1003.0 mb 0.00 in0.0 mm 0.00 in0.0 mm 0.00 in0.0 mm
02:35 AM 29.6°F-1.3°C 26.8°F-2.9°C 89% 5.0 mph NNW8.0 kmh NNW 11.0 mph17.7 kmh 29.62 in1003.0 mb 0.00 in0.0 mm 0.00 in0.0 mm 0.00 in0.0 mm
02:40 AM 29.5°F-1.4°C 26.7°F-2.9°C 89% 8.0 mph N12.9 kmh N -- 29.62 in1003.0 mb 0.00 in0.0 mm 0.00 in0.0 mm 0.00 in0.0 mm
02:45 AM 29.5°F-1.4°C 26.7°F-2.9°C 89% 9.0 mph NW14.5 kmh NW -- 29.63 in1003.4 mb 0.00 in0.0 mm 0.00 in0.0 mm 0.00 in0.0 mm
02:50 AM 29.5°F-1.4°C 26.7°F-2.9°C 89% 11.0 mph N17.7 kmh N -- 29.63 in1003.4 mb 0.00 in0.0 mm 0.00 in0.0 mm 0.00 in0.0 mm
02:55 AM 29.5°F-1.4°C 26.7°F-2.9°C 89% 8.0 mph NNE12.9 kmh NNE -- 29.63 in1003.4 mb 0.00 in0.0 mm 0.00 in0.0 mm 0.00 in0.0 mm
03:00 AM 29.5°F-1.4°C 26.7°F-2.9°C 89% 3.0 mph N4.8 kmh N -- 29.63 in1003.4 mb 0.00 in0.0 mm 0.00 in0.0 mm 0.00 in0.0 mm
03:05 AM 29.5°F-1.4°C 26.7°F-2.9°C 89% 5.0 mph NW8.0 kmh NW -- 29.64 in1003.7 mb 0.00 in0.0 mm 0.00 in0.0 mm 0.00 in0.0 mm
03:10 AM 29.4°F-1.4°C 26.6°F-3.0°C 89% 7.0 mph NNW11.3 kmh NNW -- 29.64 in1003.7 mb 0.00 in0.0 mm 0.00 in0.0 mm 0.00 in0.0 mm
03:15 AM 29.5°F-1.4°C 26.7°F-2.9°C 89% 4.0 mph NNW6.4 kmh NNW -- 29.64 in1003.7 mb 0.00 in0.0 mm 0.00 in0.0 mm 0.00 in0.0 mm
03:20 AM 29.4°F-1.4°C 26.6°F-3.0°C 89% 8.0 mph NNW12.9 kmh NNW 14.0 mph22.5 kmh 29.65 in1004.1 mb 0.00 in0.0 mm 0.00 in0.0 mm 0.00 in0.0 mm
03:25 AM 29.4°F-1.4°C 26.6°F-3.0°C 89% 3.0 mph NW4.8 kmh NW 14.0 mph22.5 kmh 29.65 in1004.1 mb 0.00 in0.0 mm 0.00 in0.0 mm 0.00 in0.0 mm
03:30 AM 29.4°F-1.4°C 26.6°F-3.0°C 89% 4.0 mph N6.4 kmh N -- 29.65 in1004.1 mb 0.00 in0.0 mm 0.00 in0.0 mm 0.00 in0.0 mm
03:35 AM 29.4°F-1.4°C 26.6°F-3.0°C 89% 5.0 mph NW8.0 kmh NW -- 29.65 in1004.1 mb 0.00 in0.0 mm 0.00 in0.0 mm 0.00 in0.0 mm
03:40 AM 29.4°F-1.4°C 26.6°F-3.0°C 89% 6.0 mph NW9.7 kmh NW -- 29.66 in1004.4 mb 0.00 in0.0 mm 0.00 in0.0 mm 0.00 in0.0 mm
03:45 AM 29.4°F-1.4°C 26.6°F-3.0°C 89% 6.0 mph NW9.7 kmh NW -- 29.66 in1004.4 mb 0.00 in0.0 mm 0.00 in0.0 mm 0.00 in0.0 mm
03:50 AM 29.3°F-1.5°C 26.5°F-3.1°C 89% 11.0 mph N17.7 kmh N -- 29.66 in1004.4 mb 0.00 in0.0 mm 0.00 in0.0 mm 0.00 in0.0 mm
03:55 AM 29.3°F-1.5°C 26.5°F-3.1°C 89% 6.0 mph NW9.7 kmh NW -- 29.66 in1004.4 mb 0.00 in0.0 mm 0.00 in0.0 mm 0.00 in0.0 mm
04:00 AM 29.4°F-1.4°C 26.6°F-3.0°C 89% 6.0 mph NW9.7 kmh NW -- 29.66 in1004.4 mb 0.00 in0.0 mm 0.00 in0.0 mm 0.00 in0.0 mm
04:05 AM 29.4°F-1.4°C 26.6°F-3.0°C 89% 7.0 mph NNW11.3 kmh NNW -- 29.66 in1004.4 mb 0.00 in0.0 mm 0.00 in0.0 mm 0.00 in0.0 mm
04:10 AM 29.3°F-1.5°C 26.5°F-3.1°C 89% 8.0 mph NW12.9 kmh NW 12.0 mph19.3 kmh 29.66 in1004.4 mb 0.00 in0.0 mm 0.00 in0.0 mm 0.00 in0.0 mm
04:15 AM 29.3°F-1.5°C 26.5°F-3.1°C 89% 5.0 mph NW8.0 kmh NW 12.0 mph19.3 kmh 29.67 in1004.7 mb 0.00 in0.0 mm 0.00 in0.0 mm 0.00 in0.0 mm
04:20 AM 29.4°F-1.4°C 26.6°F-3.0°C 89% 5.0 mph NW8.0 kmh NW -- 29.67 in1004.7 mb 0.00 in0.0 mm 0.00 in0.0 mm 0.00 in0.0 mm
04:25 AM 29.3°F-1.5°C 26.5°F-3.1°C 89% 10.0 mph NNW16.1 kmh NNW -- 29.67 in1004.7 mb 0.00 in0.0 mm 0.00 in0.0 mm 0.00 in0.0 mm
04:30 AM 29.3°F-1.5°C 26.5°F-3.1°C 89% 5.0 mph NNW8.0 kmh NNW -- 29.68 in1005.1 mb 0.00 in0.0 mm 0.00 in0.0 mm 0.00 in0.0 mm
04:35 AM 29.3°F-1.5°C 26.5°F-3.1°C 89% 6.0 mph W9.7 kmh W -- 29.68 in1005.1 mb 0.00 in0.0 mm 0.00 in0.0 mm 0.00 in0.0 mm
04:40 AM 29.2°F-1.6°C 26.4°F-3.1°C 89% 7.0 mph NW11.3 kmh NW -- 29.68 in1005.1 mb 0.00 in0.0 mm 0.00 in0.0 mm 0.00 in0.0 mm
04:45 AM 29.1°F-1.6°C 26.3°F-3.2°C 89% 8.0 mph NW12.9 kmh NW -- 29.68 in1005.1 mb 0.00 in0.0 mm 0.00 in0.0 mm 0.00 in0.0 mm
04:50 AM 29.0°F-1.7°C 26.2°F-3.2°C 89% 6.0 mph N9.7 kmh N -- 29.69 in1005.4 mb 0.00 in0.0 mm 0.00 in0.0 mm 0.00 in0.0 mm
04:55 AM 29.0°F-1.7°C 26.2°F-3.2°C 89% 7.0 mph NW11.3 kmh NW -- 29.69 in1005.4 mb 0.00 in0.0 mm 0.00 in0.0 mm 0.00 in0.0 mm
05:00 AM 29.0°F-1.7°C 26.2°F-3.2°C 89% 4.0 mph NW6.4 kmh NW 13.0 mph20.9 kmh 29.69 in1005.4 mb 0.00 in0.0 mm 0.00 in0.0 mm 0.00 in0.0 mm
05:05 AM 28.9°F-1.7°C 26.1°F-3.3°C 89% 6.0 mph WNW9.7 kmh WNW 13.0 mph20.9 kmh 29.69 in1005.4 mb 0.00 in0.0 mm 0.00 in0.0 mm 0.00 in0.0 mm
05:10 AM 28.8°F-1.8°C 26.0°F-3.3°C 89% 7.0 mph NW11.3 kmh NW -- 29.70 in1005.8 mb 0.00 in0.0 mm 0.00 in0.0 mm 0.00 in0.0 mm
05:15 AM 28.7°F-1.8°C 25.9°F-3.4°C 89% 8.0 mph NW12.9 kmh NW -- 29.70 in1005.8 mb 0.00 in0.0 mm 0.00 in0.0 mm 0.00 in0.0 mm
05:20 AM 28.7°F-1.8°C 25.9°F-3.4°C 89% 9.0 mph NW14.5 kmh NW -- 29.70 in1005.8 mb 0.00 in0.0 mm 0.00 in0.0 mm 0.00 in0.0 mm
05:25 AM 28.6°F-1.9°C 25.8°F-3.4°C 89% 10.0 mph NW16.1 kmh NW -- 29.70 in1005.8 mb 0.00 in0.0 mm 0.00 in0.0 mm 0.00 in0.0 mm
05:30 AM 28.6°F-1.9°C 25.8°F-3.4°C 89% 5.0 mph WNW8.0 kmh WNW -- 29.71 in1006.1 mb 0.00 in0.0 mm 0.00 in0.0 mm 0.00 in0.0 mm
05:35 AM 28.5°F-1.9°C 25.7°F-3.5°C 89% 7.0 mph NW11.3 kmh NW -- 29.71 in1006.1 mb 0.00 in0.0 mm 0.00 in0.0 mm 0.00 in0.0 mm
05:40 AM 28.5°F-1.9°C 25.4°F-3.7°C 88% 8.0 mph NW12.9 kmh NW -- 29.71 in1006.1 mb 0.00 in0.0 mm 0.00 in0.0 mm 0.00 in0.0 mm
05:45 AM 28.5°F-1.9°C 25.4°F-3.7°C 88% 9.0 mph NW14.5 kmh NW -- 29.71 in1006.1 mb 0.00 in0.0 mm 0.00 in0.0 mm 0.00 in0.0 mm
05:50 AM 28.4°F-2.0°C 25.3°F-3.7°C 88% 6.0 mph N9.7 kmh N 14.0 mph22.5 kmh 29.72 in1006.4 mb 0.00 in0.0 mm 0.00 in0.0 mm 0.00 in0.0 mm
05:55 AM 28.4°F-2.0°C 25.3°F-3.7°C 88% 8.0 mph NW12.9 kmh NW 14.0 mph22.5 kmh 29.72 in1006.4 mb 0.00 in0.0 mm 0.00 in0.0 mm 0.00 in0.0 mm
06:00 AM 28.4°F-2.0°C 25.3°F-3.7°C 88% 12.0 mph NW19.3 kmh NW -- 29.73 in1006.8 mb 0.00 in0.0 mm 0.00 in0.0 mm 0.00 in0.0 mm
06:05 AM 28.4°F-2.0°C 25.3°F-3.7°C 88% 8.0 mph NW12.9 kmh NW -- 29.73 in1006.8 mb 0.00 in0.0 mm 0.00 in0.0 mm 0.00 in0.0 mm
06:10 AM 28.2°F-2.1°C 25.1°F-3.8°C 88% 11.0 mph NW17.7 kmh NW -- 29.73 in1006.8 mb 0.00 in0.0 mm 0.00 in0.0 mm 0.00 in0.0 mm
06:15 AM 28.0°F-2.2°C 24.6°F-4.1°C 87% 13.0 mph NW20.9 kmh NW -- 29.73 in1006.8 mb 0.00 in0.0 mm 0.00 in0.0 mm 0.00 in0.0 mm
06:20 AM 27.8°F-2.3°C 24.4°F-4.2°C 87% 9.0 mph NNW14.5 kmh NNW -- 29.74 in1007.1 mb 0.00 in0.0 mm 0.00 in0.0 mm 0.00 in0.0 mm
06:25 AM 27.5°F-2.5°C 23.9°F-4.5°C 86% 11.0 mph NW17.7 kmh NW -- 29.74 in1007.1 mb 0.00 in0.0 mm 0.00 in0.0 mm 0.00 in0.0 mm
06:30 AM 27.4°F-2.6°C 23.8°F-4.6°C 86% 15.0 mph NW24.1 kmh NW -- 29.75 in1007.5 mb 0.00 in0.0 mm 0.00 in0.0 mm 0.00 in0.0 mm
06:35 AM 27.3°F-2.6°C 23.4°F-4.8°C 85% 10.0 mph NW16.1 kmh NW -- 29.75 in1007.5 mb 0.00 in0.0 mm 0.00 in0.0 mm 0.00 in0.0 mm
06:40 AM 27.2°F-2.7°C 23.0°F-5.0°C 84% 7.0 mph NW11.3 kmh NW 19.0 mph30.6 kmh 29.75 in1007.5 mb 0.00 in0.0 mm 0.00 in0.0 mm 0.00 in0.0 mm
06:45 AM 27.0°F-2.8°C 22.8°F-5.1°C 84% 12.0 mph NW19.3 kmh NW 19.0 mph30.6 kmh 29.76 in1007.8 mb 0.00 in0.0 mm 0.00 in0.0 mm 0.00 in0.0 mm
06:50 AM 26.9°F-2.8°C 22.7°F-5.2°C 84% 6.0 mph NW9.7 kmh NW -- 29.76 in1007.8 mb 0.00 in0.0 mm 0.00 in0.0 mm 0.00 in0.0 mm
06:55 AM 26.7°F-2.9°C 22.5°F-5.3°C 84% 9.0 mph N14.5 kmh N -- 29.77 in1008.1 mb 0.00 in0.0 mm 0.00 in0.0 mm 0.00 in0.0 mm
07:00 AM 26.6°F-3.0°C 22.4°F-5.3°C 84% 9.0 mph NW14.5 kmh NW -- 29.77 in1008.1 mb 0.00 in0.0 mm 0.00 in0.0 mm 0.00 in0.0 mm
07:05 AM 26.6°F-3.0°C 22.4°F-5.3°C 84% 8.0 mph NW12.9 kmh NW -- 29.77 in1008.1 mb 0.00 in0.0 mm 0.00 in0.0 mm 0.00 in0.0 mm
07:10 AM 26.5°F-3.1°C 22.3°F-5.4°C 84% 10.0 mph NW16.1 kmh NW -- 29.77 in1008.1 mb 0.00 in0.0 mm 0.00 in0.0 mm 0.00 in0.0 mm
07:15 AM 26.5°F-3.1°C 22.6°F-5.2°C 85% 6.0 mph NW9.7 kmh NW -- 29.78 in1008.5 mb 0.00 in0.0 mm 0.00 in0.0 mm 0.00 in0.0 mm
07:20 AM 26.5°F-3.1°C 22.6°F-5.2°C 85% 5.0 mph NW8.0 kmh NW -- 29.78 in1008.5 mb 0.00 in0.0 mm 0.00 in0.0 mm 0.00 in0.0 mm
07:25 AM 26.4°F-3.1°C 22.5°F-5.3°C 85% 8.0 mph NW12.9 kmh NW -- 29.79 in1008.8 mb 0.00 in0.0 mm 0.00 in0.0 mm 0.00 in0.0 mm
07:30 AM 26.3°F-3.2°C 22.7°F-5.2°C 86% 10.0 mph WNW16.1 kmh WNW 14.0 mph22.5 kmh 29.79 in1008.8 mb 0.00 in0.0 mm 0.00 in0.0 mm 0.00 in0.0 mm
07:35 AM 26.2°F-3.2°C 22.6°F-5.2°C 86% 6.0 mph WNW9.7 kmh WNW 14.0 mph22.5 kmh 29.80 in1009.1 mb 0.00 in0.0 mm 0.00 in0.0 mm 0.00 in0.0 mm
07:40 AM 26.0°F-3.3°C 22.4°F-5.3°C 86% 15.0 mph NW24.1 kmh NW -- 29.80 in1009.1 mb 0.00 in0.0 mm 0.00 in0.0 mm 0.00 in0.0 mm
07:45 AM 26.0°F-3.3°C 22.4°F-5.3°C 86% 9.0 mph NW14.5 kmh NW -- 29.80 in1009.1 mb 0.00 in0.0 mm 0.00 in0.0 mm 0.00 in0.0 mm
07:50 AM 25.9°F-3.4°C 22.3°F-5.4°C 86% 6.0 mph NW9.7 kmh NW -- 29.80 in1009.1 mb 0.00 in0.0 mm 0.00 in0.0 mm 0.00 in0.0 mm
07:55 AM 25.9°F-3.4°C 22.3°F-5.4°C 86% 5.0 mph NNW8.0 kmh NNW -- 29.81 in1009.5 mb 0.00 in0.0 mm 0.00 in0.0 mm 0.00 in0.0 mm
08:00 AM 25.7°F-3.5°C 22.1°F-5.5°C 86% 9.0 mph WNW14.5 kmh WNW -- 29.81 in1009.5 mb 0.00 in0.0 mm 0.00 in0.0 mm 0.00 in0.0 mm
08:05 AM 25.7°F-3.5°C 22.1°F-5.5°C 86% 10.0 mph NNW16.1 kmh NNW -- 29.81 in1009.5 mb 0.00 in0.0 mm 0.00 in0.0 mm 0.00 in0.0 mm
08:10 AM 25.7°F-3.5°C 22.1°F-5.5°C 86% 7.0 mph NW11.3 kmh NW -- 29.81 in1009.5 mb 0.00 in0.0 mm 0.00 in0.0 mm 0.00 in0.0 mm
08:15 AM 25.6°F-3.6°C 22.0°F-5.6°C 86% 11.0 mph NW17.7 kmh NW -- 29.82 in1009.8 mb 0.00 in0.0 mm 0.00 in0.0 mm 0.00 in0.0 mm
08:20 AM 25.6°F-3.6°C 22.0°F-5.6°C 86% 9.0 mph NNW14.5 kmh NNW 21.0 mph33.8 kmh 29.82 in1009.8 mb 0.00 in0.0 mm 0.00 in0.0 mm 0.00 in0.0 mm
08:25 AM 25.6°F-3.6°C 21.7°F-5.7°C 85% 8.0 mph NW12.9 kmh NW 21.0 mph33.8 kmh 29.82 in1009.8 mb 0.00 in0.0 mm 0.00 in0.0 mm 0.00 in0.0 mm
08:30 AM 25.6°F-3.6°C 22.0°F-5.6°C 86% 6.0 mph NW9.7 kmh NW -- 29.82 in1009.8 mb 0.00 in0.0 mm 0.00 in0.0 mm 0.00 in0.0 mm
08:35 AM 25.4°F-3.7°C 21.8°F-5.7°C 86% 8.0 mph NW12.9 kmh NW -- 29.83 in1010.2 mb 0.00 in0.0 mm 0.00 in0.0 mm 0.00 in0.0 mm
08:40 AM 25.3°F-3.7°C 21.7°F-5.7°C 86% 12.0 mph WNW19.3 kmh WNW -- 29.83 in1010.2 mb 0.00 in0.0 mm 0.00 in0.0 mm 0.00 in0.0 mm
08:45 AM 25.2°F-3.8°C 21.6°F-5.8°C 86% 9.0 mph NNW14.5 kmh NNW -- 29.84 in1010.5 mb 0.00 in0.0 mm 0.00 in0.0 mm 0.00 in0.0 mm
08:50 AM 25.1°F-3.8°C 21.8°F-5.7°C 87% 8.0 mph NNW12.9 kmh NNW -- 29.84 in1010.5 mb 0.00 in0.0 mm 0.00 in0.0 mm 0.00 in0.0 mm
08:55 AM 25.1°F-3.8°C 21.8°F-5.7°C 87% 7.0 mph NW11.3 kmh NW -- 29.84 in1010.5 mb 0.00 in0.0 mm 0.00 in0.0 mm 0.00 in0.0 mm
09:00 AM 25.0°F-3.9°C 21.7°F-5.7°C 87% 9.0 mph NW14.5 kmh NW -- 29.84 in1010.5 mb 0.00 in0.0 mm 0.00 in0.0 mm 0.00 in0.0 mm
09:05 AM 25.1°F-3.8°C 21.8°F-5.7°C 87% 8.0 mph NW12.9 kmh NW -- 29.85 in1010.8 mb 0.00 in0.0 mm 0.00 in0.0 mm 0.00 in0.0 mm
09:10 AM 25.0°F-3.9°C 21.7°F-5.7°C 87% 8.0 mph NNW12.9 kmh NNW 13.0 mph20.9 kmh 29.85 in1010.8 mb 0.00 in0.0 mm 0.00 in0.0 mm 0.00 in0.0 mm
09:15 AM 25.0°F-3.9°C 21.7°F-5.7°C 87% 7.0 mph N11.3 kmh N 13.0 mph20.9 kmh 29.86 in1011.2 mb 0.00 in0.0 mm 0.00 in0.0 mm 0.00 in0.0 mm
09:20 AM 25.1°F-3.8°C 21.8°F-5.7°C 87% 3.0 mph NW4.8 kmh NW -- 29.86 in1011.2 mb 0.00 in0.0 mm 0.00 in0.0 mm 0.00 in0.0 mm
09:25 AM 25.0°F-3.9°C 21.7°F-5.7°C 87% 10.0 mph NW16.1 kmh NW -- 29.86 in1011.2 mb 0.00 in0.0 mm 0.00 in0.0 mm 0.00 in0.0 mm
09:30 AM 25.1°F-3.8°C 21.8°F-5.7°C 87% 14.0 mph NW22.5 kmh NW -- 29.87 in1011.5 mb 0.00 in0.0 mm 0.00 in0.0 mm 0.00 in0.0 mm
09:35 AM 25.1°F-3.8°C 21.8°F-5.7°C 87% 7.0 mph NW11.3 kmh NW -- 29.87 in1011.5 mb 0.00 in0.0 mm 0.00 in0.0 mm 0.00 in0.0 mm
09:40 AM 25.1°F-3.8°C 21.8°F-5.7°C 87% 6.0 mph NNW9.7 kmh NNW -- 29.87 in1011.5 mb 0.00 in0.0 mm 0.00 in0.0 mm 0.00 in0.0 mm
09:45 AM 25.1°F-3.8°C 21.8°F-5.7°C 87% 7.0 mph WSW11.3 kmh WSW -- 29.88 in1011.9 mb 0.00 in0.0 mm 0.00 in0.0 mm 0.00 in0.0 mm
09:50 AM 25.1°F-3.8°C 21.8°F-5.7°C 87% 12.0 mph NW19.3 kmh NW -- 29.88 in1011.9 mb 0.00 in0.0 mm 0.00 in0.0 mm 0.00 in0.0 mm
09:55 AM 25.1°F-3.8°C 21.8°F-5.7°C 87% 4.0 mph NW6.4 kmh NW -- 29.88 in1011.9 mb 0.00 in0.0 mm 0.00 in0.0 mm 0.00 in0.0 mm
10:00 AM 25.2°F-3.8°C 21.9°F-5.6°C 87% 5.0 mph NW8.0 kmh NW 15.0 mph24.1 kmh 29.88 in1011.9 mb 0.00 in0.0 mm 0.00 in0.0 mm 0.00 in0.0 mm
10:05 AM 25.3°F-3.7°C 22.0°F-5.6°C 87% 6.0 mph WNW9.7 kmh WNW 15.0 mph24.1 kmh 29.89 in1012.2 mb 0.00 in0.0 mm 0.00 in0.0 mm 0.00 in0.0 mm
10:10 AM 25.3°F-3.7°C 22.0°F-5.6°C 87% 5.0 mph NW8.0 kmh NW -- 29.89 in1012.2 mb 0.00 in0.0 mm 0.00 in0.0 mm 0.00 in0.0 mm
10:15 AM 25.4°F-3.7°C 22.1°F-5.5°C 87% 8.0 mph NW12.9 kmh NW -- 29.89 in1012.2 mb 0.00 in0.0 mm 0.00 in0.0 mm 0.00 in0.0 mm
10:20 AM 25.4°F-3.7°C 22.1°F-5.5°C 87% 5.0 mph W8.0 kmh W -- 29.90 in1012.5 mb 0.00 in0.0 mm 0.00 in0.0 mm 0.00 in0.0 mm
10:25 AM 25.5°F-3.6°C 22.2°F-5.4°C 87% 4.0 mph W6.4 kmh W -- 29.90 in1012.5 mb 0.00 in0.0 mm 0.00 in0.0 mm 0.00 in0.0 mm
10:30 AM 25.6°F-3.6°C 22.3°F-5.4°C 87% 12.0 mph NW19.3 kmh NW -- 29.90 in1012.5 mb 0.00 in0.0 mm 0.00 in0.0 mm 0.00 in0.0 mm
10:35 AM 25.6°F-3.6°C 22.3°F-5.4°C 87% 9.0 mph NNW14.5 kmh NNW -- 29.91 in1012.9 mb 0.00 in0.0 mm 0.00 in0.0 mm 0.00 in0.0 mm
10:40 AM 25.6°F-3.6°C 22.0°F-5.6°C 86% 7.0 mph NNW11.3 kmh NNW -- 29.91 in1012.9 mb 0.00 in0.0 mm 0.00 in0.0 mm 0.00 in0.0 mm
10:45 AM 25.7°F-3.5°C 21.8°F-5.7°C 85% 5.0 mph NW8.0 kmh NW -- 29.91 in1012.9 mb 0.00 in0.0 mm 0.00 in0.0 mm 0.00 in0.0 mm
10:50 AM 25.7°F-3.5°C 21.8°F-5.7°C 85% 10.0 mph WNW16.1 kmh WNW 11.0 mph17.7 kmh 29.92 in1013.2 mb 0.00 in0.0 mm 0.00 in0.0 mm 0.00 in0.0 mm
10:55 AM 25.7°F-3.5°C 21.8°F-5.7°C 85% 12.0 mph WNW19.3 kmh WNW 11.0 mph17.7 kmh 29.92 in1013.2 mb 0.00 in0.0 mm 0.00 in0.0 mm 0.00 in0.0 mm
11:00 AM 25.6°F-3.6°C 21.7°F-5.7°C 85% 9.0 mph NW14.5 kmh NW -- 29.93 in1013.5 mb 0.00 in0.0 mm 0.00 in0.0 mm 0.00 in0.0 mm
11:05 AM 25.6°F-3.6°C 21.7°F-5.7°C 85% 9.0 mph NW14.5 kmh NW -- 29.93 in1013.5 mb 0.00 in0.0 mm 0.00 in0.0 mm 0.00 in0.0 mm
11:10 AM 25.6°F-3.6°C 21.4°F-5.9°C 84% 8.0 mph NW12.9 kmh NW -- 29.93 in1013.5 mb 0.00 in0.0 mm 0.00 in0.0 mm 0.00 in0.0 mm
11:15 AM 25.7°F-3.5°C 21.5°F-5.8°C 84% 8.0 mph NW12.9 kmh NW -- 29.94 in1013.9 mb 0.00 in0.0 mm 0.00 in0.0 mm 0.00 in0.0 mm
11:20 AM 25.7°F-3.5°C 21.5°F-5.8°C 84% 6.0 mph NW9.7 kmh NW -- 29.94 in1013.9 mb 0.00 in0.0 mm 0.00 in0.0 mm 0.00 in0.0 mm
11:25 AM 25.7°F-3.5°C 21.5°F-5.8°C 84% 4.0 mph NW6.4 kmh NW -- 29.94 in1013.9 mb 0.00 in0.0 mm 0.00 in0.0 mm 0.00 in0.0 mm
11:30 AM 25.7°F-3.5°C 21.5°F-5.8°C 84% 9.0 mph NW14.5 kmh NW -- 29.95 in1014.2 mb 0.00 in0.0 mm 0.00 in0.0 mm 0.00 in0.0 mm
11:35 AM 25.9°F-3.4°C 21.7°F-5.7°C 84% 9.0 mph WNW14.5 kmh WNW -- 29.95 in1014.2 mb 0.00 in0.0 mm 0.00 in0.0 mm 0.00 in0.0 mm
11:40 AM 25.8°F-3.4°C 21.6°F-5.8°C 84% 7.0 mph NW11.3 kmh NW 15.0 mph24.1 kmh 29.95 in1014.2 mb 0.00 in0.0 mm 0.00 in0.0 mm 0.00 in0.0 mm
11:45 AM 25.7°F-3.5°C 21.5°F-5.8°C 84% 12.0 mph NW19.3 kmh NW 15.0 mph24.1 kmh 29.95 in1014.2 mb 0.00 in0.0 mm 0.00 in0.0 mm 0.00 in0.0 mm
11:50 AM 25.8°F-3.4°C 21.6°F-5.8°C 84% 8.0 mph W12.9 kmh W -- 29.96 in1014.6 mb 0.00 in0.0 mm 0.00 in0.0 mm 0.00 in0.0 mm
11:55 AM 26.0°F-3.3°C 21.8°F-5.7°C 84% 7.0 mph NW11.3 kmh NW -- 29.96 in1014.6 mb 0.00 in0.0 mm 0.00 in0.0 mm 0.00 in0.0 mm
12:00 PM 26.0°F-3.3°C 21.8°F-5.7°C 84% 7.0 mph NW11.3 kmh NW -- 29.96 in1014.6 mb 0.00 in0.0 mm 0.00 in0.0 mm 0.00 in0.0 mm
12:05 PM 26.1°F-3.3°C 21.9°F-5.6°C 84% 16.0 mph NW25.7 kmh NW -- 29.96 in1014.6 mb 0.00 in0.0 mm 0.00 in0.0 mm 0.00 in0.0 mm
12:10 PM 26.1°F-3.3°C 21.9°F-5.6°C 84% 8.0 mph NW12.9 kmh NW -- 29.96 in1014.6 mb 0.00 in0.0 mm 0.00 in0.0 mm 0.00 in0.0 mm
12:15 PM 26.3°F-3.2°C 22.1°F-5.5°C 84% 5.0 mph NW8.0 kmh NW -- 29.96 in1014.6 mb 0.00 in0.0 mm 0.00 in0.0 mm 0.00 in0.0 mm
12:20 PM 26.4°F-3.1°C 22.2°F-5.4°C 84% 9.0 mph NW14.5 kmh NW -- 29.96 in1014.6 mb 0.00 in0.0 mm 0.00 in0.0 mm 0.00 in0.0 mm
12:25 PM 26.5°F-3.1°C 22.3°F-5.4°C 84% 6.0 mph W9.7 kmh W -- 29.96 in1014.6 mb 0.00 in0.0 mm 0.00 in0.0 mm 0.00 in0.0 mm
12:30 PM 26.6°F-3.0°C 22.4°F-5.3°C 84% 8.0 mph W12.9 kmh W 16.0 mph25.7 kmh 29.96 in1014.6 mb 0.00 in0.0 mm 0.00 in0.0 mm 0.00 in0.0 mm
12:35 PM 26.5°F-3.1°C 22.0°F-5.6°C 83% 8.0 mph NW12.9 kmh NW 16.0 mph25.7 kmh 29.96 in1014.6 mb 0.00 in0.0 mm 0.00 in0.0 mm 0.00 in0.0 mm
12:40 PM 26.6°F-3.0°C 22.1°F-5.5°C 83% 10.0 mph NW16.1 kmh NW -- 29.97 in1014.9 mb 0.00 in0.0 mm 0.00 in0.0 mm 0.00 in0.0 mm
12:45 PM 26.5°F-3.1°C 22.0°F-5.6°C 83% 6.0 mph WNW9.7 kmh WNW -- 29.97 in1014.9 mb 0.00 in0.0 mm 0.00 in0.0 mm 0.00 in0.0 mm
12:50 PM 26.5°F-3.1°C 22.0°F-5.6°C 83% 8.0 mph NW12.9 kmh NW -- 29.97 in1014.9 mb 0.00 in0.0 mm 0.00 in0.0 mm 0.00 in0.0 mm
12:55 PM 26.5°F-3.1°C 22.3°F-5.4°C 84% 3.0 mph W4.8 kmh W -- 29.97 in1014.9 mb 0.00 in0.0 mm 0.00 in0.0 mm 0.00 in0.0 mm
01:00 PM 26.4°F-3.1°C 22.2°F-5.4°C 84% 10.0 mph W16.1 kmh W -- 29.98 in1015.2 mb 0.00 in0.0 mm 0.00 in0.0 mm 0.00 in0.0 mm
01:05 PM 26.2°F-3.2°C 22.0°F-5.6°C 84% 4.0 mph W6.4 kmh W -- 29.98 in1015.2 mb 0.00 in0.0 mm 0.00 in0.0 mm 0.00 in0.0 mm
01:10 PM 26.2°F-3.2°C 22.0°F-5.6°C 84% 9.0 mph NNW14.5 kmh NNW -- 29.98 in1015.2 mb 0.00 in0.0 mm 0.00 in0.0 mm 0.00 in0.0 mm
01:15 PM 26.3°F-3.2°C 22.1°F-5.5°C 84% 6.0 mph NW9.7 kmh NW -- 29.98 in1015.2 mb 0.00 in0.0 mm 0.00 in0.0 mm 0.00 in0.0 mm
01:20 PM 26.3°F-3.2°C 22.1°F-5.5°C 84% 7.0 mph W11.3 kmh W 15.0 mph24.1 kmh 29.99 in1015.6 mb 0.00 in0.0 mm 0.00 in0.0 mm 0.00 in0.0 mm
01:25 PM 26.2°F-3.2°C 22.0°F-5.6°C 84% 14.0 mph NW22.5 kmh NW 15.0 mph24.1 kmh 29.99 in1015.6 mb 0.00 in0.0 mm 0.00 in0.0 mm 0.00 in0.0 mm
01:30 PM 26.1°F-3.3°C 21.9°F-5.6°C 84% 5.0 mph NW8.0 kmh NW -- 29.99 in1015.6 mb 0.00 in0.0 mm 0.00 in0.0 mm 0.00 in0.0 mm
01:35 PM 26.3°F-3.2°C 22.4°F-5.3°C 85% 9.0 mph WNW14.5 kmh WNW -- 29.99 in1015.6 mb 0.00 in0.0 mm 0.00 in0.0 mm 0.00 in0.0 mm
01:40 PM 26.2°F-3.2°C 22.0°F-5.6°C 84% 12.0 mph NW19.3 kmh NW -- 29.99 in1015.6 mb 0.00 in0.0 mm 0.00 in0.0 mm 0.00 in0.0 mm
01:45 PM 26.1°F-3.3°C 21.9°F-5.6°C 84% 12.0 mph NW19.3 kmh NW -- 29.99 in1015.6 mb 0.00 in0.0 mm 0.00 in0.0 mm 0.00 in0.0 mm
01:50 PM 26.3°F-3.2°C 22.1°F-5.5°C 84% 12.0 mph NW19.3 kmh NW -- 29.99 in1015.6 mb 0.00 in0.0 mm 0.00 in0.0 mm 0.00 in0.0 mm
01:55 PM 26.3°F-3.2°C 22.1°F-5.5°C 84% 12.0 mph NW19.3 kmh NW -- 30.00 in1015.9 mb 0.00 in0.0 mm 0.00 in0.0 mm 0.00 in0.0 mm
02:00 PM 26.3°F-3.2°C 22.1°F-5.5°C 84% 5.0 mph NW8.0 kmh NW -- 30.00 in1015.9 mb 0.00 in0.0 mm 0.00 in0.0 mm 0.00 in0.0 mm
02:05 PM 26.2°F-3.2°C 21.8°F-5.7°C 83% 12.0 mph NW19.3 kmh NW -- 30.00 in1015.9 mb 0.00 in0.0 mm 0.00 in0.0 mm 0.00 in0.0 mm
02:10 PM 26.3°F-3.2°C 21.9°F-5.6°C 83% 7.0 mph WNW11.3 kmh WNW 14.0 mph22.5 kmh 30.00 in1015.9 mb 0.00 in0.0 mm 0.00 in0.0 mm 0.00 in0.0 mm
02:15 PM 26.5°F-3.1°C 22.3°F-5.4°C 84% 5.0 mph NW8.0 kmh NW 14.0 mph22.5 kmh 30.00 in1015.9 mb 0.00 in0.0 mm 0.00 in0.0 mm 0.00 in0.0 mm
02:20 PM 26.3°F-3.2°C 21.9°F-5.6°C 83% 12.0 mph NW19.3 kmh NW -- 30.01 in1016.3 mb 0.00 in0.0 mm 0.00 in0.0 mm 0.00 in0.0 mm
02:25 PM 26.2°F-3.2°C 21.8°F-5.7°C 83% 8.0 mph WNW12.9 kmh WNW -- 30.01 in1016.3 mb 0.00 in0.0 mm 0.00 in0.0 mm 0.00 in0.0 mm
02:30 PM 26.2°F-3.2°C 22.0°F-5.6°C 84% 10.0 mph WNW16.1 kmh WNW -- 30.01 in1016.3 mb 0.00 in0.0 mm 0.00 in0.0 mm 0.00 in0.0 mm
02:35 PM 26.2°F-3.2°C 22.0°F-5.6°C 84% 5.0 mph NW8.0 kmh NW -- 30.01 in1016.3 mb 0.00 in0.0 mm 0.00 in0.0 mm 0.00 in0.0 mm
02:40 PM 26.3°F-3.2°C 22.1°F-5.5°C 84% 9.0 mph WNW14.5 kmh WNW -- 30.02 in1016.6 mb 0.00 in0.0 mm 0.00 in0.0 mm 0.00 in0.0 mm
02:45 PM 26.1°F-3.3°C 21.7°F-5.7°C 83% 10.0 mph WNW16.1 kmh WNW -- 30.02 in1016.6 mb 0.00 in0.0 mm 0.00 in0.0 mm 0.00 in0.0 mm
02:50 PM 26.2°F-3.2°C 21.8°F-5.7°C 83% 5.0 mph NW8.0 kmh NW -- 30.02 in1016.6 mb 0.00 in0.0 mm 0.00 in0.0 mm 0.00 in0.0 mm
02:55 PM 26.3°F-3.2°C 21.9°F-5.6°C 83% 7.0 mph WNW11.3 kmh WNW -- 30.02 in1016.6 mb 0.00 in0.0 mm 0.00 in0.0 mm 0.00 in0.0 mm
03:00 PM 26.3°F-3.2°C 21.9°F-5.6°C 83% 11.0 mph W17.7 kmh W 13.0 mph20.9 kmh 30.03 in1016.9 mb 0.00 in0.0 mm 0.00 in0.0 mm 0.00 in0.0 mm
03:05 PM 26.4°F-3.1°C 22.0°F-5.6°C 83% 8.0 mph NW12.9 kmh NW 13.0 mph20.9 kmh 30.03 in1016.9 mb 0.00 in0.0 mm 0.00 in0.0 mm 0.00 in0.0 mm
03:10 PM 26.4°F-3.1°C 22.0°F-5.6°C 83% 5.0 mph NW8.0 kmh NW -- 30.03 in1016.9 mb 0.00 in0.0 mm 0.00 in0.0 mm 0.00 in0.0 mm
03:15 PM 26.5°F-3.1°C 22.0°F-5.6°C 83% 8.0 mph NW12.9 kmh NW -- 30.04 in1017.3 mb 0.00 in0.0 mm 0.00 in0.0 mm 0.00 in0.0 mm
03:20 PM 26.5°F-3.1°C 22.0°F-5.6°C 83% 6.0 mph WNW9.7 kmh WNW -- 30.04 in1017.3 mb 0.00 in0.0 mm 0.00 in0.0 mm 0.00 in0.0 mm
03:25 PM 26.5°F-3.1°C 22.0°F-5.6°C 83% 6.0 mph W9.7 kmh W -- 30.04 in1017.3 mb 0.00 in0.0 mm 0.00 in0.0 mm 0.00 in0.0 mm
03:30 PM 26.5°F-3.1°C 22.0°F-5.6°C 83% 8.0 mph W12.9 kmh W -- 30.05 in1017.6 mb 0.00 in0.0 mm 0.00 in0.0 mm 0.00 in0.0 mm
03:35 PM 26.4°F-3.1°C 22.0°F-5.6°C 83% 4.0 mph NW6.4 kmh NW -- 30.06 in1017.9 mb 0.00 in0.0 mm 0.00 in0.0 mm 0.00 in0.0 mm
03:40 PM 26.3°F-3.2°C 21.9°F-5.6°C 83% 4.0 mph NW6.4 kmh NW -- 30.06 in1017.9 mb 0.00 in0.0 mm 0.00 in0.0 mm 0.00 in0.0 mm
03:45 PM 26.2°F-3.2°C 21.8°F-5.7°C 83% 8.0 mph WNW12.9 kmh WNW -- 30.06 in1017.9 mb 0.00 in0.0 mm 0.00 in0.0 mm 0.00 in0.0 mm
03:50 PM 26.2°F-3.2°C 21.8°F-5.7°C 83% 5.0 mph NW8.0 kmh NW 13.0 mph20.9 kmh 30.07 in1018.3 mb 0.00 in0.0 mm 0.00 in0.0 mm 0.00 in0.0 mm
03:55 PM 26.3°F-3.2°C 21.9°F-5.6°C 83% 6.0 mph WNW9.7 kmh WNW 13.0 mph20.9 kmh 30.07 in1018.3 mb 0.00 in0.0 mm 0.00 in0.0 mm 0.00 in0.0 mm
04:00 PM 26.3°F-3.2°C 21.9°F-5.6°C 83% 7.0 mph NW11.3 kmh NW -- 30.08 in1018.6 mb 0.00 in0.0 mm 0.00 in0.0 mm 0.00 in0.0 mm
04:05 PM 26.3°F-3.2°C 21.9°F-5.6°C 83% 10.0 mph WNW16.1 kmh WNW -- 30.08 in1018.6 mb 0.00 in0.0 mm 0.00 in0.0 mm 0.00 in0.0 mm
04:10 PM 26.2°F-3.2°C 21.8°F-5.7°C 83% 12.0 mph NW19.3 kmh NW -- 30.09 in1019.0 mb 0.00 in0.0 mm 0.00 in0.0 mm 0.00 in0.0 mm
04:15 PM 26.1°F-3.3°C 21.7°F-5.7°C 83% 9.0 mph WNW14.5 kmh WNW -- 30.09 in1019.0 mb 0.00 in0.0 mm 0.00 in0.0 mm 0.00 in0.0 mm
04:20 PM 26.1°F-3.3°C 21.7°F-5.7°C 83% 5.0 mph WNW8.0 kmh WNW -- 30.09 in1019.0 mb 0.00 in0.0 mm 0.00 in0.0 mm 0.00 in0.0 mm
04:25 PM 26.2°F-3.2°C 22.0°F-5.6°C 84% 4.0 mph NW6.4 kmh NW -- 30.10 in1019.3 mb 0.00 in0.0 mm 0.00 in0.0 mm 0.00 in0.0 mm
04:30 PM 26.2°F-3.2°C 21.8°F-5.7°C 83% 9.0 mph NW14.5 kmh NW -- 30.10 in1019.3 mb 0.00 in0.0 mm 0.00 in0.0 mm 0.00 in0.0 mm
04:35 PM 26.2°F-3.2°C 21.8°F-5.7°C 83% 8.0 mph NW12.9 kmh NW -- 30.10 in1019.3 mb 0.00 in0.0 mm 0.00 in0.0 mm 0.00 in0.0 mm
04:40 PM 26.1°F-3.3°C 21.7°F-5.7°C 83% 9.0 mph NW14.5 kmh NW 11.0 mph17.7 kmh 30.11 in1019.6 mb 0.00 in0.0 mm 0.00 in0.0 mm 0.00 in0.0 mm
04:45 PM 26.1°F-3.3°C 21.7°F-5.7°C 83% 5.0 mph WNW8.0 kmh WNW 11.0 mph17.7 kmh 30.11 in1019.6 mb 0.00 in0.0 mm 0.00 in0.0 mm 0.00 in0.0 mm
04:50 PM 26.1°F-3.3°C 21.7°F-5.7°C 83% 7.0 mph NW11.3 kmh NW -- 30.11 in1019.6 mb 0.00 in0.0 mm 0.00 in0.0 mm 0.00 in0.0 mm
04:55 PM 26.2°F-3.2°C 21.8°F-5.7°C 83% 3.0 mph NW4.8 kmh NW -- 30.11 in1019.6 mb 0.00 in0.0 mm 0.00 in0.0 mm 0.00 in0.0 mm
05:00 PM 26.1°F-3.3°C 21.7°F-5.7°C 83% 5.0 mph WNW8.0 kmh WNW -- 30.12 in1020.0 mb 0.00 in0.0 mm 0.00 in0.0 mm 0.00 in0.0 mm
05:05 PM 26.1°F-3.3°C 21.7°F-5.7°C 83% 6.0 mph WSW9.7 kmh WSW -- 30.12 in1020.0 mb 0.00 in0.0 mm 0.00 in0.0 mm 0.00 in0.0 mm
05:10 PM 26.1°F-3.3°C 21.7°F-5.7°C 83% 8.0 mph WNW12.9 kmh WNW -- 30.13 in1020.3 mb 0.00 in0.0 mm 0.00 in0.0 mm 0.00 in0.0 mm
05:15 PM 26.0°F-3.3°C 21.6°F-5.8°C 83% 4.0 mph WNW6.4 kmh WNW -- 30.13 in1020.3 mb 0.00 in0.0 mm 0.00 in0.0 mm 0.00 in0.0 mm
05:20 PM 26.0°F-3.3°C 21.6°F-5.8°C 83% 4.0 mph WNW6.4 kmh WNW -- 30.13 in1020.3 mb 0.00 in0.0 mm 0.00 in0.0 mm 0.00 in0.0 mm
05:25 PM 26.0°F-3.3°C 21.6°F-5.8°C 83% 5.0 mph WNW8.0 kmh WNW -- 30.13 in1020.3 mb 0.00 in0.0 mm 0.00 in0.0 mm 0.00 in0.0 mm
05:30 PM 26.0°F-3.3°C 21.6°F-5.8°C 83% 5.0 mph NW8.0 kmh NW 9.0 mph14.5 kmh 30.14 in1020.7 mb 0.00 in0.0 mm 0.00 in0.0 mm 0.00 in0.0 mm
05:35 PM 26.1°F-3.3°C 21.7°F-5.7°C 83% 7.0 mph NW11.3 kmh NW 9.0 mph14.5 kmh 30.14 in1020.7 mb 0.00 in0.0 mm 0.00 in0.0 mm 0.00 in0.0 mm
05:40 PM 26.1°F-3.3°C 21.7°F-5.7°C 83% 3.0 mph WNW4.8 kmh WNW -- 30.14 in1020.7 mb 0.00 in0.0 mm 0.00 in0.0 mm 0.00 in0.0 mm
05:45 PM 26.1°F-3.3°C 21.9°F-5.6°C 84% 4.0 mph W6.4 kmh W -- 30.14 in1020.7 mb 0.00 in0.0 mm 0.00 in0.0 mm 0.00 in0.0 mm
05:50 PM 26.1°F-3.3°C 21.9°F-5.6°C 84% 4.0 mph W6.4 kmh W -- 30.14 in1020.7 mb 0.00 in0.0 mm 0.00 in0.0 mm 0.00 in0.0 mm
05:55 PM 26.1°F-3.3°C 21.9°F-5.6°C 84% 3.0 mph WNW4.8 kmh WNW -- 30.15 in1021.0 mb 0.00 in0.0 mm 0.00 in0.0 mm 0.00 in0.0 mm
06:00 PM 26.1°F-3.3°C 21.9°F-5.6°C 84% 4.0 mph NW6.4 kmh NW -- 30.15 in1021.0 mb 0.00 in0.0 mm 0.00 in0.0 mm 0.00 in0.0 mm
06:05 PM 26.1°F-3.3°C 21.7°F-5.7°C 83% 3.0 mph NW4.8 kmh NW -- 30.16 in1021.3 mb 0.00 in0.0 mm 0.00 in0.0 mm 0.00 in0.0 mm
06:10 PM 26.1°F-3.3°C 21.7°F-5.7°C 83% 5.0 mph W8.0 kmh W -- 30.16 in1021.3 mb 0.00 in0.0 mm 0.00 in0.0 mm 0.00 in0.0 mm
06:15 PM 26.1°F-3.3°C 21.7°F-5.7°C 83% 3.0 mph WNW4.8 kmh WNW -- 30.16 in1021.3 mb 0.00 in0.0 mm 0.00 in0.0 mm 0.00 in0.0 mm
06:20 PM 26.1°F-3.3°C 21.9°F-5.6°C 84% 3.0 mph NW4.8 kmh NW 9.0 mph14.5 kmh 30.17 in1021.7 mb 0.00 in0.0 mm 0.00 in0.0 mm 0.00 in0.0 mm
06:25 PM 26.1°F-3.3°C 21.9°F-5.6°C 84% 3.0 mph WNW4.8 kmh WNW 9.0 mph14.5 kmh 30.17 in1021.7 mb 0.00 in0.0 mm 0.00 in0.0 mm 0.00 in0.0 mm
06:30 PM 26.1°F-3.3°C 21.9°F-5.6°C 84% 5.0 mph WNW8.0 kmh WNW -- 30.17 in1021.7 mb 0.00 in0.0 mm 0.00 in0.0 mm 0.00 in0.0 mm
06:35 PM 26.1°F-3.3°C 21.9°F-5.6°C 84% 2.0 mph WNW3.2 kmh WNW -- 30.17 in1021.7 mb 0.00 in0.0 mm 0.00 in0.0 mm 0.00 in0.0 mm
06:40 PM 26.1°F-3.3°C 21.9°F-5.6°C 84% 4.0 mph NW6.4 kmh NW -- 30.17 in1021.7 mb 0.00 in0.0 mm 0.00 in0.0 mm 0.00 in0.0 mm
06:45 PM 26.1°F-3.3°C 21.7°F-5.7°C 83% 6.0 mph NW9.7 kmh NW -- 30.18 in1022.0 mb 0.00 in0.0 mm 0.00 in0.0 mm 0.00 in0.0 mm
06:50 PM 26.1°F-3.3°C 21.7°F-5.7°C 83% 3.0 mph NW4.8 kmh NW -- 30.17 in1021.7 mb 0.00 in0.0 mm 0.00 in0.0 mm 0.00 in0.0 mm
06:55 PM 26.1°F-3.3°C 21.7°F-5.7°C 83% 5.0 mph NW8.0 kmh NW -- 30.17 in1021.7 mb 0.00 in0.0 mm 0.00 in0.0 mm 0.00 in0.0 mm
07:00 PM 26.1°F-3.3°C 21.7°F-5.7°C 83% 5.0 mph NW8.0 kmh NW -- 30.17 in1021.7 mb 0.00 in0.0 mm 0.00 in0.0 mm 0.00 in0.0 mm
07:05 PM 26.1°F-3.3°C 21.7°F-5.7°C 83% 3.0 mph WNW4.8 kmh WNW -- 30.18 in1022.0 mb 0.00 in0.0 mm 0.00 in0.0 mm 0.00 in0.0 mm
07:10 PM 26.1°F-3.3°C 21.9°F-5.6°C 84% 4.0 mph WNW6.4 kmh WNW 9.0 mph14.5 kmh 30.18 in1022.0 mb 0.00 in0.0 mm 0.00 in0.0 mm 0.00 in0.0 mm
07:15 PM 26.1°F-3.3°C 21.7°F-5.7°C 83% 6.0 mph WNW9.7 kmh WNW 9.0 mph14.5 kmh 30.18 in1022.0 mb 0.00 in0.0 mm 0.00 in0.0 mm 0.00 in0.0 mm
07:20 PM 26.1°F-3.3°C 21.7°F-5.7°C 83% 6.0 mph W9.7 kmh W -- 30.18 in1022.0 mb 0.00 in0.0 mm 0.00 in0.0 mm 0.00 in0.0 mm
07:25 PM 26.1°F-3.3°C 21.7°F-5.7°C 83% 7.0 mph WNW11.3 kmh WNW -- 30.18 in1022.0 mb 0.00 in0.0 mm 0.00 in0.0 mm 0.00 in0.0 mm
07:30 PM 26.1°F-3.3°C 21.7°F-5.7°C 83% 4.0 mph NW6.4 kmh NW -- 30.18 in1022.0 mb 0.00 in0.0 mm 0.00 in0.0 mm 0.00 in0.0 mm
07:35 PM 26.1°F-3.3°C 21.7°F-5.7°C 83% 3.0 mph NW4.8 kmh NW -- 30.19 in1022.4 mb 0.00 in0.0 mm 0.00 in0.0 mm 0.00 in0.0 mm
07:40 PM 26.1°F-3.3°C 21.7°F-5.7°C 83% 3.0 mph WNW4.8 kmh WNW -- 30.19 in1022.4 mb 0.00 in0.0 mm 0.00 in0.0 mm 0.00 in0.0 mm
07:45 PM 26.1°F-3.3°C 21.7°F-5.7°C 83% 5.0 mph NW8.0 kmh NW -- 30.19 in1022.4 mb 0.00 in0.0 mm 0.00 in0.0 mm 0.00 in0.0 mm
07:50 PM 26.0°F-3.3°C 21.3°F-5.9°C 82% 6.0 mph NW9.7 kmh NW -- 30.20 in1022.7 mb 0.00 in0.0 mm 0.00 in0.0 mm 0.00 in0.0 mm
07:55 PM 26.0°F-3.3°C 21.3°F-5.9°C 82% 2.0 mph WNW3.2 kmh WNW -- 30.20 in1022.7 mb 0.00 in0.0 mm 0.00 in0.0 mm 0.00 in0.0 mm
08:00 PM 26.0°F-3.3°C 21.3°F-5.9°C 82% 4.0 mph WNW6.4 kmh WNW 10.0 mph16.1 kmh 30.20 in1022.7 mb 0.00 in0.0 mm 0.00 in0.0 mm 0.00 in0.0 mm
08:05 PM 26.0°F-3.3°C 21.3°F-5.9°C 82% 3.0 mph WNW4.8 kmh WNW 10.0 mph16.1 kmh 30.20 in1022.7 mb 0.00 in0.0 mm 0.00 in0.0 mm 0.00 in0.0 mm
08:10 PM 26.0°F-3.3°C 21.3°F-5.9°C 82% 7.0 mph NW11.3 kmh NW -- 30.20 in1022.7 mb 0.00 in0.0 mm 0.00 in0.0 mm 0.00 in0.0 mm
08:15 PM 25.9°F-3.4°C 21.2°F-6.0°C 82% 3.0 mph WNW4.8 kmh WNW -- 30.20 in1022.7 mb 0.00 in0.0 mm 0.00 in0.0 mm 0.00 in0.0 mm
08:20 PM 25.8°F-3.4°C 21.1°F-6.1°C 82% 3.0 mph WNW4.8 kmh WNW -- 30.20 in1022.7 mb 0.00 in0.0 mm 0.00 in0.0 mm 0.00 in0.0 mm
08:25 PM 25.8°F-3.4°C 21.1°F-6.1°C 82% 2.0 mph WNW3.2 kmh WNW -- 30.21 in1023.0 mb 0.00 in0.0 mm 0.00 in0.0 mm 0.00 in0.0 mm
08:30 PM 25.8°F-3.4°C 21.4°F-5.9°C 83% 3.0 mph WNW4.8 kmh WNW -- 30.21 in1023.0 mb 0.00 in0.0 mm 0.00 in0.0 mm 0.00 in0.0 mm
08:35 PM 25.7°F-3.5°C 21.0°F-6.1°C 82% 4.0 mph WNW6.4 kmh WNW -- 30.21 in1023.0 mb 0.00 in0.0 mm 0.00 in0.0 mm 0.00 in0.0 mm
08:40 PM 25.7°F-3.5°C 21.0°F-6.1°C 82% 2.0 mph W3.2 kmh W -- 30.21 in1023.0 mb 0.00 in0.0 mm 0.00 in0.0 mm 0.00 in0.0 mm
08:45 PM 25.7°F-3.5°C 21.3°F-5.9°C 83% 6.0 mph WNW9.7 kmh WNW -- 30.21 in1023.0 mb 0.00 in0.0 mm 0.00 in0.0 mm 0.00 in0.0 mm
08:50 PM 25.6°F-3.6°C 20.9°F-6.2°C 82% 3.0 mph WNW4.8 kmh WNW 7.0 mph11.3 kmh 30.21 in1023.0 mb 0.00 in0.0 mm 0.00 in0.0 mm 0.00 in0.0 mm
08:55 PM 25.6°F-3.6°C 21.2°F-6.0°C 83% 4.0 mph WNW6.4 kmh WNW 7.0 mph11.3 kmh 30.21 in1023.0 mb 0.00 in0.0 mm 0.00 in0.0 mm 0.00 in0.0 mm
09:00 PM 25.6°F-3.6°C 21.2°F-6.0°C 83% 7.0 mph W11.3 kmh W -- 30.21 in1023.0 mb 0.00 in0.0 mm 0.00 in0.0 mm 0.00 in0.0 mm
09:05 PM 25.6°F-3.6°C 21.2°F-6.0°C 83% 2.0 mph NW3.2 kmh NW -- 30.21 in1023.0 mb 0.00 in0.0 mm 0.00 in0.0 mm 0.00 in0.0 mm
09:10 PM 25.5°F-3.6°C 21.1°F-6.1°C 83% 4.0 mph WNW6.4 kmh WNW -- 30.21 in1023.0 mb 0.00 in0.0 mm 0.00 in0.0 mm 0.00 in0.0 mm
09:15 PM 25.5°F-3.6°C 21.1°F-6.1°C 83% 2.0 mph W3.2 kmh W -- 30.22 in1023.4 mb 0.00 in0.0 mm 0.00 in0.0 mm 0.00 in0.0 mm
09:20 PM 25.4°F-3.7°C 21.0°F-6.1°C 83% 5.0 mph NW8.0 kmh NW -- 30.22 in1023.4 mb 0.00 in0.0 mm 0.00 in0.0 mm 0.00 in0.0 mm
09:25 PM 25.4°F-3.7°C 21.0°F-6.1°C 83% 6.0 mph WNW9.7 kmh WNW -- 30.22 in1023.4 mb 0.00 in0.0 mm 0.00 in0.0 mm 0.00 in0.0 mm
09:30 PM 25.4°F-3.7°C 21.0°F-6.1°C 83% 6.0 mph WNW9.7 kmh WNW -- 30.22 in1023.4 mb 0.00 in0.0 mm 0.00 in0.0 mm 0.00 in0.0 mm
09:35 PM 25.3°F-3.7°C 20.9°F-6.2°C 83% 2.0 mph W3.2 kmh W -- 30.22 in1023.4 mb 0.00 in0.0 mm 0.00 in0.0 mm 0.00 in0.0 mm
09:40 PM 25.3°F-3.7°C 21.2°F-6.0°C 84% 4.0 mph NW6.4 kmh NW 7.0 mph11.3 kmh 30.22 in1023.4 mb 0.00 in0.0 mm 0.00 in0.0 mm 0.00 in0.0 mm
09:45 PM 25.2°F-3.8°C 21.1°F-6.1°C 84% 3.0 mph NW4.8 kmh NW 7.0 mph11.3 kmh 30.23 in1023.7 mb 0.00 in0.0 mm 0.00 in0.0 mm 0.00 in0.0 mm
09:50 PM 25.2°F-3.8°C 21.1°F-6.1°C 84% 3.0 mph W4.8 kmh W -- 30.22 in1023.4 mb 0.00 in0.0 mm 0.00 in0.0 mm 0.00 in0.0 mm
09:55 PM 25.2°F-3.8°C 21.1°F-6.1°C 84% 1.0 mph NW1.6 kmh NW -- 30.22 in1023.4 mb 0.00 in0.0 mm 0.00 in0.0 mm 0.00 in0.0 mm
10:00 PM 25.2°F-3.8°C 21.1°F-6.1°C 84% 3.0 mph WNW4.8 kmh WNW -- 30.22 in1023.4 mb 0.00 in0.0 mm 0.00 in0.0 mm 0.00 in0.0 mm
10:05 PM 25.2°F-3.8°C 21.1°F-6.1°C 84% 7.0 mph NW11.3 kmh NW -- 30.23 in1023.7 mb 0.00 in0.0 mm 0.00 in0.0 mm 0.00 in0.0 mm
10:10 PM 25.2°F-3.8°C 21.1°F-6.1°C 84% 7.0 mph W11.3 kmh W -- 30.23 in1023.7 mb 0.00 in0.0 mm 0.00 in0.0 mm 0.00 in0.0 mm
10:15 PM 25.1°F-3.8°C 21.0°F-6.1°C 84% 3.0 mph NW4.8 kmh NW -- 30.23 in1023.7 mb 0.00 in0.0 mm 0.00 in0.0 mm 0.00 in0.0 mm
10:20 PM 25.2°F-3.8°C 21.1°F-6.1°C 84% 4.0 mph WNW6.4 kmh WNW -- 30.24 in1024.0 mb 0.00 in0.0 mm 0.00 in0.0 mm 0.00 in0.0 mm
10:25 PM 25.2°F-3.8°C 21.1°F-6.1°C 84% 5.0 mph NW8.0 kmh NW -- 30.24 in1024.0 mb 0.00 in0.0 mm 0.00 in0.0 mm 0.00 in0.0 mm
10:30 PM 25.1°F-3.8°C 21.0°F-6.1°C 84% 7.0 mph W11.3 kmh W 9.0 mph14.5 kmh 30.24 in1024.0 mb 0.00 in0.0 mm 0.00 in0.0 mm 0.00 in0.0 mm
10:35 PM 25.1°F-3.8°C 21.0°F-6.1°C 84% 5.0 mph WNW8.0 kmh WNW 9.0 mph14.5 kmh 30.24 in1024.0 mb 0.00 in0.0 mm 0.00 in0.0 mm 0.00 in0.0 mm
10:40 PM 25.0°F-3.9°C 20.9°F-6.2°C 84% 5.0 mph NW8.0 kmh NW -- 30.25 in1024.4 mb 0.00 in0.0 mm 0.00 in0.0 mm 0.00 in0.0 mm
10:45 PM 25.0°F-3.9°C 20.9°F-6.2°C 84% 5.0 mph NW8.0 kmh NW -- 30.25 in1024.4 mb 0.00 in0.0 mm 0.00 in0.0 mm 0.00 in0.0 mm
10:50 PM 25.0°F-3.9°C 20.9°F-6.2°C 84% 7.0 mph WNW11.3 kmh WNW -- 30.25 in1024.4 mb 0.00 in0.0 mm 0.00 in0.0 mm 0.00 in0.0 mm
10:55 PM 25.0°F-3.9°C 20.9°F-6.2°C 84% 6.0 mph NW9.7 kmh NW -- 30.25 in1024.4 mb 0.00 in0.0 mm 0.00 in0.0 mm 0.00 in0.0 mm
11:00 PM 24.9°F-3.9°C 20.8°F-6.2°C 84% 5.0 mph NW8.0 kmh NW -- 30.25 in1024.4 mb 0.00 in0.0 mm 0.00 in0.0 mm 0.00 in0.0 mm
11:05 PM 24.9°F-3.9°C 20.8°F-6.2°C 84% 3.0 mph NW4.8 kmh NW -- 30.25 in1024.4 mb 0.00 in0.0 mm 0.00 in0.0 mm 0.00 in0.0 mm
11:10 PM 24.9°F-3.9°C 20.8°F-6.2°C 84% 3.0 mph WNW4.8 kmh WNW -- 30.25 in1024.4 mb 0.00 in0.0 mm 0.00 in0.0 mm 0.00 in0.0 mm
11:15 PM 24.9°F-3.9°C 20.8°F-6.2°C 84% 5.0 mph WNW8.0 kmh WNW -- 30.25 in1024.4 mb 0.00 in0.0 mm 0.00 in0.0 mm 0.00 in0.0 mm
11:20 PM 24.9°F-3.9°C 20.8°F-6.2°C 84% 4.0 mph NNW6.4 kmh NNW 9.0 mph14.5 kmh 30.25 in1024.4 mb 0.00 in0.0 mm 0.00 in0.0 mm 0.00 in0.0 mm
11:25 PM 24.8°F-4.0°C 20.7°F-6.3°C 84% 6.0 mph NW9.7 kmh NW 9.0 mph14.5 kmh 30.25 in1024.4 mb 0.00 in0.0 mm 0.00 in0.0 mm 0.00 in0.0 mm
11:30 PM 24.8°F-4.0°C 20.7°F-6.3°C 84% 3.0 mph NW4.8 kmh NW -- 30.25 in1024.4 mb 0.00 in0.0 mm 0.00 in0.0 mm 0.00 in0.0 mm
11:35 PM 24.8°F-4.0°C 20.9°F-6.2°C 85% 4.0 mph WNW6.4 kmh WNW -- 30.25 in1024.4 mb 0.00 in0.0 mm 0.00 in0.0 mm 0.00 in0.0 mm
11:40 PM 24.8°F-4.0°C 20.9°F-6.2°C 85% 5.0 mph NW8.0 kmh NW -- 30.25 in1024.4 mb 0.00 in0.0 mm 0.00 in0.0 mm 0.00 in0.0 mm
11:45 PM 24.8°F-4.0°C 20.9°F-6.2°C 85% 3.0 mph NW4.8 kmh NW -- 30.25 in1024.4 mb 0.00 in0.0 mm 0.00 in0.0 mm 0.00 in0.0 mm
11:50 PM 24.7°F-4.1°C 20.6°F-6.3°C 84% 2.0 mph NW3.2 kmh NW -- 30.25 in1024.4 mb 0.00 in0.0 mm 0.00 in0.0 mm 0.00 in0.0 mm
11:55 PM 24.7°F-4.1°C 20.6°F-6.3°C 84% 4.0 mph NW6.4 kmh NW -- 30.25 in1024.4 mb 0.00 in0.0 mm 0.00 in0.0 mm 0.00 in0.0 mm